sensor_id;sensor_type;location;lat;lon;timestamp;pressure;altitude;pressure_sealevel;temperature;humidity
63090;BME280;49174;43.198;27.824;2022-11-20T03:22:29;101202.00;;;16.94;100.00
63090;BME280;49174;43.198;27.824;2022-11-20T03:31:25;101175.78;;;16.93;100.00
63090;BME280;49174;43.198;27.824;2022-11-20T03:34:30;101162.31;;;16.98;100.00
63090;BME280;49174;43.198;27.824;2022-11-20T03:53:01;101161.44;;;17.46;98.07
63090;BME280;49174;43.198;27.824;2022-11-20T03:55:59;101161.34;;;17.53;97.56
63090;BME280;49174;43.198;27.824;2022-11-20T04:05:03;101147.16;;;17.74;94.99
63090;BME280;49174;43.198;27.824;2022-11-20T04:07:29;101142.16;;;17.71;95.52
63090;BME280;49174;43.198;27.824;2022-11-20T04:09:54;101145.34;;;17.68;94.92
63090;BME280;49174;43.198;27.824;2022-11-20T04:12:20;101152.94;;;17.66;95.63
63090;BME280;49174;43.198;27.824;2022-11-20T04:14:45;101151.53;;;17.63;95.96
63090;BME280;49174;43.198;27.824;2022-11-20T04:17:11;101148.91;;;17.57;95.55
63090;BME280;49174;43.198;27.824;2022-11-20T04:19:38;101152.78;;;17.49;95.45
63090;BME280;49174;43.198;27.824;2022-11-20T04:22:03;101136.66;;;17.48;95.44
63090;BME280;49174;43.198;27.824;2022-11-20T04:24:29;101141.19;;;17.54;95.22
63090;BME280;49174;43.198;27.824;2022-11-20T04:26:55;101130.88;;;17.56;95.32
63090;BME280;49174;43.198;27.824;2022-11-20T04:29:21;101133.72;;;17.61;95.10
63090;BME280;49174;43.198;27.824;2022-11-20T04:31:46;101141.91;;;17.61;94.37
63090;BME280;49174;43.198;27.824;2022-11-20T04:34:12;101131.91;;;17.55;94.83
63090;BME280;49174;43.198;27.824;2022-11-20T04:37:12;101121.47;;;17.52;95.71
63090;BME280;49174;43.198;27.824;2022-11-20T04:39:42;101122.78;;;17.49;94.96
63090;BME280;49174;43.198;27.824;2022-11-20T04:42:09;101117.31;;;17.49;95.13
63090;BME280;49174;43.198;27.824;2022-11-20T04:45:11;101125.50;;;17.49;94.88
63090;BME280;49174;43.198;27.824;2022-11-20T05:07:39;101134.75;;;17.48;94.15
63090;BME280;49174;43.198;27.824;2022-11-20T05:52:38;101156.06;;;17.70;92.62
63090;BME280;49174;43.198;27.824;2022-11-20T05:55:09;101154.50;;;17.74;91.71
63090;BME280;49174;43.198;27.824;2022-11-20T05:57:36;101153.53;;;17.68;92.04
63090;BME280;49174;43.198;27.824;2022-11-20T06:00:03;101157.34;;;17.67;92.95
63090;BME280;49174;43.198;27.824;2022-11-20T06:02:28;101156.88;;;17.70;92.55
63090;BME280;49174;43.198;27.824;2022-11-20T06:04:54;101150.25;;;17.78;91.57
63090;BME280;49174;43.198;27.824;2022-11-20T06:07:19;101161.56;;;17.81;91.70
63090;BME280;49174;43.198;27.824;2022-11-20T06:09:45;101161.56;;;17.81;91.94
63090;BME280;49174;43.198;27.824;2022-11-20T06:12:10;101160.97;;;17.79;91.59
63090;BME280;49174;43.198;27.824;2022-11-20T06:14:36;101159.19;;;17.85;91.58
63090;BME280;49174;43.198;27.824;2022-11-20T06:17:02;101151.00;;;17.85;91.73
63090;BME280;49174;43.198;27.824;2022-11-20T06:19:27;101161.56;;;17.81;91.36
63090;BME280;49174;43.198;27.824;2022-11-20T06:21:53;101160.47;;;17.82;91.34
63090;BME280;49174;43.198;27.824;2022-11-20T06:24:18;101159.78;;;17.87;91.33
63090;BME280;49174;43.198;27.824;2022-11-20T06:26:44;101160.88;;;17.86;91.65
63090;BME280;49174;43.198;27.824;2022-11-20T06:29:10;101169.16;;;17.91;90.56
63090;BME280;49174;43.198;27.824;2022-11-20T06:31:36;101157.31;;;17.97;90.63
63090;BME280;49174;43.198;27.824;2022-11-20T06:34:04;101157.06;;;17.99;90.36
63090;BME280;49174;43.198;27.824;2022-11-20T06:36:31;101162.66;;;18.04;91.46
63090;BME280;49174;43.198;27.824;2022-11-20T06:38:57;101164.69;;;18.08;90.21
63090;BME280;49174;43.198;27.824;2022-11-20T06:41:24;101167.28;;;18.15;90.06
63090;BME280;49174;43.198;27.824;2022-11-20T06:43:51;101170.50;;;18.12;89.87
63090;BME280;49174;43.198;27.824;2022-11-20T06:46:17;101164.81;;;18.14;90.12
63090;BME280;49174;43.198;27.824;2022-11-20T06:48:44;101163.72;;;18.15;89.53
63090;BME280;49174;43.198;27.824;2022-11-20T06:51:09;101168.13;;;18.16;89.49
63090;BME280;49174;43.198;27.824;2022-11-20T06:53:35;101157.09;;;18.22;88.94
63090;BME280;49174;43.198;27.824;2022-11-20T06:56:02;101154.47;;;18.27;88.22
63090;BME280;49174;43.198;27.824;2022-11-20T06:58:29;101167.19;;;18.34;87.46
63090;BME280;49174;43.198;27.824;2022-11-20T07:00:59;101161.00;;;18.38;87.30
63090;BME280;49174;43.198;27.824;2022-11-20T07:03:24;101171.34;;;18.48;87.02
63090;BME280;49174;43.198;27.824;2022-11-20T07:05:50;101177.84;;;18.47;87.63
63090;BME280;49174;43.198;27.824;2022-11-20T07:08:15;101175.22;;;18.52;87.45
63090;BME280;49174;43.198;27.824;2022-11-20T07:10:41;101177.84;;;18.59;86.52
63090;BME280;49174;43.198;27.824;2022-11-20T07:13:07;101166.44;;;18.62;86.89
63090;BME280;49174;43.198;27.824;2022-11-20T07:15:32;101170.13;;;18.67;86.13
63090;BME280;49174;43.198;27.824;2022-11-20T07:17:59;101170.22;;;18.72;85.49
63090;BME280;49174;43.198;27.824;2022-11-20T07:20:26;101175.81;;;18.78;85.09
63090;BME280;49174;43.198;27.824;2022-11-20T07:22:58;101157.06;;;18.81;85.25
63090;BME280;49174;43.198;27.824;2022-11-20T07:25:28;101159.63;;;18.88;84.91
63090;BME280;49174;43.198;27.824;2022-11-20T07:28:00;101165.22;;;18.93;84.35
63090;BME280;49174;43.198;27.824;2022-11-20T07:30:29;101171.38;;;19.00;84.60
63090;BME280;49174;43.198;27.824;2022-11-20T07:32:55;101170.91;;;19.03;82.84
63090;BME280;49174;43.198;27.824;2022-11-20T07:35:22;101172.66;;;19.09;82.83
63090;BME280;49174;43.198;27.824;2022-11-20T07:37:48;101161.22;;;19.12;83.35
63090;BME280;49174;43.198;27.824;2022-11-20T07:40:14;101171.88;;;19.26;82.80
63090;BME280;49174;43.198;27.824;2022-11-20T07:43:00;101154.22;;;19.33;81.60
63090;BME280;49174;43.198;27.824;2022-11-20T07:45:25;101157.44;;;19.42;82.47
63090;BME280;49174;43.198;27.824;2022-11-20T07:47:51;101167.88;;;19.45;81.38
63090;BME280;49174;43.198;27.824;2022-11-20T07:50:17;101155.13;;;19.51;81.17
63090;BME280;49174;43.198;27.824;2022-11-20T07:52:43;101160.91;;;19.54;81.65
63090;BME280;49174;43.198;27.824;2022-11-20T07:55:09;101152.81;;;19.59;81.91
63090;BME280;49174;43.198;27.824;2022-11-20T07:57:35;101168.50;;;19.64;81.23
63090;BME280;49174;43.198;27.824;2022-11-20T08:00:02;101168.34;;;19.71;81.37
63090;BME280;49174;43.198;27.824;2022-11-20T08:02:28;101167.38;;;19.77;81.09
63090;BME280;49174;43.198;27.824;2022-11-20T08:04:54;101170.19;;;19.82;80.92
63090;BME280;49174;43.198;27.824;2022-11-20T08:07:19;101164.31;;;19.90;80.31
63090;BME280;49174;43.198;27.824;2022-11-20T08:09:45;101165.44;;;19.94;80.37
63090;BME280;49174;43.198;27.824;2022-11-20T08:12:18;101161.75;;;20.00;79.17
63090;BME280;49174;43.198;27.824;2022-11-20T08:15:03;101167.28;;;20.05;78.82
63090;BME280;49174;43.198;27.824;2022-11-20T08:17:29;101174.53;;;20.12;80.22
63090;BME280;49174;43.198;27.824;2022-11-20T08:19:54;101180.31;;;20.15;79.58
63090;BME280;49174;43.198;27.824;2022-11-20T08:22:20;101181.22;;;20.21;79.37
63090;BME280;49174;43.198;27.824;2022-11-20T08:24:46;101180.97;;;20.22;77.37
63090;BME280;49174;43.198;27.824;2022-11-20T08:27:11;101182.38;;;20.25;77.91
63090;BME280;49174;43.198;27.824;2022-11-20T08:29:37;101182.38;;;20.25;80.08
63090;BME280;49174;43.198;27.824;2022-11-20T08:32:02;101185.19;;;20.30;80.06
63090;BME280;49174;43.198;27.824;2022-11-20T08:34:28;101180.03;;;20.34;78.92
63090;BME280;49174;43.198;27.824;2022-11-20T08:36:54;101178.38;;;20.33;78.72
63090;BME280;49174;43.198;27.824;2022-11-20T08:39:19;101172.16;;;20.37;78.14
63090;BME280;49174;43.198;27.824;2022-11-20T08:41:45;101166.69;;;20.37;78.34
63090;BME280;49174;43.198;27.824;2022-11-20T08:44:10;101162.91;;;20.43;78.34
63090;BME280;49174;43.198;27.824;2022-11-20T08:46:40;101150.88;;;20.44;77.50
63090;BME280;49174;43.198;27.824;2022-11-20T08:49:09;101156.94;;;20.46;79.50
63090;BME280;49174;43.198;27.824;2022-11-20T08:51:35;101147.63;;;20.47;78.30
63090;BME280;49174;43.198;27.824;2022-11-20T08:54:01;101147.88;;;20.46;77.44
63090;BME280;49174;43.198;27.824;2022-11-20T08:56:27;101158.34;;;20.49;78.29
63090;BME280;49174;43.198;27.824;2022-11-20T08:58:53;101159.69;;;20.46;78.26
63090;BME280;49174;43.198;27.824;2022-11-20T09:01:19;101149.88;;;20.50;77.28
63090;BME280;49174;43.198;27.824;2022-11-20T09:03:45;101158.66;;;20.52;77.16
63090;BME280;49174;43.198;27.824;2022-11-20T09:06:11;101159.75;;;20.51;77.06
63090;BME280;49174;43.198;27.824;2022-11-20T09:08:37;101148.78;;;20.51;76.54
63090;BME280;49174;43.198;27.824;2022-11-20T09:11:03;101148.78;;;20.51;75.52
63090;BME280;49174;43.198;27.824;2022-11-20T09:13:29;101138.34;;;20.48;75.97
63090;BME280;49174;43.198;27.824;2022-11-20T09:15:56;101136.72;;;20.52;76.12
63090;BME280;49174;43.198;27.824;2022-11-20T09:18:23;101140.56;;;20.51;76.21
63090;BME280;49174;43.198;27.824;2022-11-20T09:20:49;101144.41;;;20.50;76.17
63090;BME280;49174;43.198;27.824;2022-11-20T09:23:15;101134.84;;;20.53;77.17
63090;BME280;49174;43.198;27.824;2022-11-20T09:25:41;101146.66;;;20.53;76.33
63090;BME280;49174;43.198;27.824;2022-11-20T09:28:07;101141.19;;;20.53;75.74
63090;BME280;49174;43.198;27.824;2022-11-20T09:30:33;101142.22;;;20.52;75.97
63090;BME280;49174;43.198;27.824;2022-11-20T09:32:58;101126.84;;;20.51;74.60
63090;BME280;49174;43.198;27.824;2022-11-20T09:35:24;101123.03;;;20.52;74.54
63090;BME280;49174;43.198;27.824;2022-11-20T09:37:49;101125.75;;;20.52;74.16
63090;BME280;49174;43.198;27.824;2022-11-20T09:40:24;101108.28;;;20.53;74.46
63090;BME280;49174;43.198;27.824;2022-11-20T09:43:03;101118.88;;;20.50;74.20
63090;BME280;49174;43.198;27.824;2022-11-20T09:45:37;101108.19;;;20.48;74.92
63090;BME280;49174;43.198;27.824;2022-11-20T09:54:05;101102.38;;;20.45;74.79
63090;BME280;49174;43.198;27.824;2022-11-20T09:56:31;101096.63;;;20.46;75.11
63090;BME280;49174;43.198;27.824;2022-11-20T09:59:02;101096.13;;;20.49;75.19
63090;BME280;49174;43.198;27.824;2022-11-20T10:01:32;101081.00;;;20.47;74.67
63090;BME280;49174;43.198;27.824;2022-11-20T10:04:14;101081.09;;;20.52;74.80
63090;BME280;49174;43.198;27.824;2022-11-20T10:07:02;101094.47;;;20.48;74.40
63090;BME280;49174;43.198;27.824;2022-11-20T10:09:36;101089.09;;;20.53;74.68
63090;BME280;49174;43.198;27.824;2022-11-20T10:20:51;101058.97;;;20.59;74.08
63090;BME280;49174;43.198;27.824;2022-11-20T10:25:55;101054.66;;;20.63;73.09
63090;BME280;49174;43.198;27.824;2022-11-20T10:31:09;101049.09;;;20.58;73.04
63090;BME280;49174;43.198;27.824;2022-11-20T10:33:39;101045.28;;;20.59;73.99
63090;BME280;49174;43.198;27.824;2022-11-20T10:38:44;101047.19;;;20.58;73.90
63090;BME280;49174;43.198;27.824;2022-11-20T10:41:40;101046.13;;;20.59;72.26
63090;BME280;49174;43.198;27.824;2022-11-20T10:44:20;101030.22;;;20.61;73.34
63090;BME280;49174;43.198;27.824;2022-11-20T10:47:05;101046.13;;;20.59;72.95
63090;BME280;49174;43.198;27.824;2022-11-20T10:49:35;101039.47;;;20.55;73.58
63090;BME280;49174;43.198;27.824;2022-11-20T10:54:43;101040.78;;;20.52;73.88
63090;BME280;49174;43.198;27.824;2022-11-20T11:00:07;101037.97;;;20.47;73.67
63090;BME280;49174;43.198;27.824;2022-11-20T11:07:55;101045.31;;;20.42;73.48
63090;BME280;49174;43.198;27.824;2022-11-20T11:10:26;101039.53;;;20.38;73.55
63090;BME280;49174;43.198;27.824;2022-11-20T11:12:54;101029.91;;;20.36;73.16
63090;BME280;49174;43.198;27.824;2022-11-20T11:15:37;101036.19;;;20.36;73.90
63090;BME280;49174;43.198;27.824;2022-11-20T11:18:03;101042.69;;;20.30;73.66
63090;BME280;49174;43.198;27.824;2022-11-20T11:20:29;101044.38;;;20.31;74.45
63090;BME280;49174;43.198;27.824;2022-11-20T11:22:56;101044.88;;;20.28;73.81
63090;BME280;49174;43.198;27.824;2022-11-20T11:25:23;101036.34;;;20.24;73.86
63090;BME280;49174;43.198;27.824;2022-11-20T11:27:50;101046.97;;;20.21;73.53
63090;BME280;49174;43.198;27.824;2022-11-20T11:30:18;101045.81;;;20.17;74.12
63090;BME280;49174;43.198;27.824;2022-11-20T11:32:44;101056.72;;;20.12;72.77
63090;BME280;49174;43.198;27.824;2022-11-20T11:35:25;101056.22;;;20.15;73.00
63090;BME280;49174;43.198;27.824;2022-11-20T11:37:54;101060.38;;;20.17;73.56
63090;BME280;49174;43.198;27.824;2022-11-20T11:40:27;101063.66;;;20.19;73.78
63090;BME280;49174;43.198;27.824;2022-11-20T11:43:02;101064.50;;;20.20;73.41
63090;BME280;49174;43.198;27.824;2022-11-20T11:45:29;101069.47;;;20.23;73.04
63090;BME280;49174;43.198;27.824;2022-11-20T11:48:00;101077.88;;;20.16;74.46
63090;BME280;49174;43.198;27.824;2022-11-20T11:50:29;101083.09;;;20.18;74.18
63090;BME280;49174;43.198;27.824;2022-11-20T11:55:30;101079.69;;;20.11;74.13
63090;BME280;49174;43.198;27.824;2022-11-20T11:58:19;101076.66;;;20.07;74.08
63090;BME280;49174;43.198;27.824;2022-11-20T12:01:00;101081.22;;;20.01;74.04
63090;BME280;49174;43.198;27.824;2022-11-20T12:03:36;101093.75;;;19.97;74.23
63090;BME280;49174;43.198;27.824;2022-11-20T12:12:16;101074.16;;;20.05;74.44
63090;BME280;49174;43.198;27.824;2022-11-20T12:14:30;101075.81;;;20.06;73.59
63090;BME280;49174;43.198;27.824;2022-11-20T12:17:00;101075.00;;;20.06;73.59
63090;BME280;49174;43.198;27.824;2022-11-20T12:19:30;101056.38;;;20.08;74.10
63090;BME280;49174;43.198;27.824;2022-11-20T12:25:10;101035.28;;;20.08;73.32
63090;BME280;49174;43.198;27.824;2022-11-20T12:30:16;101034.31;;;20.15;73.08
63090;BME280;49174;43.198;27.824;2022-11-20T12:32:58;101034.31;;;20.15;73.42
63090;BME280;49174;43.198;27.824;2022-11-20T12:44:39;101042.44;;;20.09;72.83
63090;BME280;49174;43.198;27.824;2022-11-20T12:47:36;101038.03;;;20.08;73.09
63090;BME280;49174;43.198;27.824;2022-11-20T13:06:56;101057.41;;;20.02;73.75
63090;BME280;49174;43.198;27.824;2022-11-20T13:09:22;101054.94;;;20.00;73.83
63090;BME280;49174;43.198;27.824;2022-11-20T13:12:15;101052.75;;;20.02;73.71
63090;BME280;49174;43.198;27.824;2022-11-20T13:14:50;101057.91;;;19.99;73.80
63090;BME280;49174;43.198;27.824;2022-11-20T13:17:28;101056.50;;;19.96;73.50
63090;BME280;49174;43.198;27.824;2022-11-20T13:19:57;101050.44;;;19.94;73.56
63090;BME280;49174;43.198;27.824;2022-11-20T13:22:28;101055.09;;;19.94;73.93
63090;BME280;49174;43.198;27.824;2022-11-20T13:24:54;101050.69;;;19.93;74.16
63090;BME280;49174;43.198;27.824;2022-11-20T13:27:23;101052.03;;;19.90;74.04
63090;BME280;49174;43.198;27.824;2022-11-20T13:30:17;101052.03;;;19.90;74.28
63090;BME280;49174;43.198;27.824;2022-11-20T13:32:51;101051.44;;;19.88;74.60
63090;BME280;49174;43.198;27.824;2022-11-20T13:40:26;101066.38;;;19.80;74.33
63090;BME280;49174;43.198;27.824;2022-11-20T13:43:08;101074.34;;;19.82;74.82
63090;BME280;49174;43.198;27.824;2022-11-20T13:45:36;101075.78;;;19.84;74.87
63090;BME280;49174;43.198;27.824;2022-11-20T13:48:21;101082.56;;;19.82;74.64
63090;BME280;49174;43.198;27.824;2022-11-20T13:50:58;101075.50;;;19.86;74.53
63090;BME280;49174;43.198;27.824;2022-11-20T13:56:05;101063.91;;;19.79;74.51
63090;BME280;49174;43.198;27.824;2022-11-20T14:01:21;101066.56;;;19.74;74.30
63090;BME280;49174;43.198;27.824;2022-11-20T14:03:48;101062.41;;;19.71;74.88
63090;BME280;49174;43.198;27.824;2022-11-20T14:06:28;101059.44;;;19.73;75.48
63090;BME280;49174;43.198;27.824;2022-11-20T14:08:55;101058.59;;;19.72;75.40
63090;BME280;49174;43.198;27.824;2022-11-20T14:11:24;101058.59;;;19.72;75.63
63090;BME280;49174;43.198;27.824;2022-11-20T14:14:17;101070.53;;;19.66;76.21
63090;BME280;49174;43.198;27.824;2022-11-20T14:16:45;101079.22;;;19.63;75.10
63090;BME280;49174;43.198;27.824;2022-11-20T14:21:46;101064.38;;;19.59;75.90
63090;BME280;49174;43.198;27.824;2022-11-20T14:24:13;101060.25;;;19.56;76.52
63090;BME280;49174;43.198;27.824;2022-11-20T14:26:43;101061.25;;;19.50;76.42
63090;BME280;49174;43.198;27.824;2022-11-20T14:29:22;101055.19;;;19.48;77.08
63090;BME280;49174;43.198;27.824;2022-11-20T14:31:52;101059.75;;;19.42;77.31
63090;BME280;49174;43.198;27.824;2022-11-20T14:34:22;101058.91;;;19.42;77.89
63090;BME280;49174;43.198;27.824;2022-11-20T14:36:52;101068.78;;;19.43;76.27
63090;BME280;49174;43.198;27.824;2022-11-20T14:39:26;101063.53;;;19.41;76.52
63090;BME280;49174;43.198;27.824;2022-11-20T14:41:54;101057.75;;;19.38;77.51
63090;BME280;49174;43.198;27.824;2022-11-20T14:44:25;101055.66;;;19.28;77.61
63090;BME280;49174;43.198;27.824;2022-11-20T14:46:52;101049.28;;;19.23;77.59
63090;BME280;49174;43.198;27.824;2022-11-20T14:49:18;101052.97;;;19.16;78.21
63090;BME280;49174;43.198;27.824;2022-11-20T14:51:45;101053.38;;;19.08;78.39
63090;BME280;49174;43.198;27.824;2022-11-20T14:54:12;101047.97;;;18.96;78.24
63090;BME280;49174;43.198;27.824;2022-11-20T14:56:39;101043.16;;;18.87;78.90
63090;BME280;49174;43.198;27.824;2022-11-20T14:59:05;101038.81;;;18.74;80.00
63090;BME280;49174;43.198;27.824;2022-11-20T15:01:33;101039.66;;;18.63;79.85
63090;BME280;49174;43.198;27.824;2022-11-20T15:04:11;101039.91;;;18.61;79.75
63090;BME280;49174;43.198;27.824;2022-11-20T15:06:37;101035.97;;;18.57;80.21
63090;BME280;49174;43.198;27.824;2022-11-20T15:09:04;101030.69;;;18.50;80.73
63090;BME280;49174;43.198;27.824;2022-11-20T15:11:32;101036.97;;;18.51;80.67
63090;BME280;49174;43.198;27.824;2022-11-20T15:14:03;101023.19;;;18.46;80.70
63090;BME280;49174;43.198;27.824;2022-11-20T15:16:30;101028.81;;;18.39;80.38
63090;BME280;49174;43.198;27.824;2022-11-20T15:18:56;101020.84;;;18.38;81.19
63090;BME280;49174;43.198;27.824;2022-11-20T15:21:26;101022.53;;;18.27;82.08
63090;BME280;49174;43.198;27.824;2022-11-20T15:23:52;101024.31;;;18.21;81.29
63090;BME280;49174;43.198;27.824;2022-11-20T15:26:26;101030.75;;;18.15;81.76
63090;BME280;49174;43.198;27.824;2022-11-20T15:28:52;101037.19;;;18.09;82.56
63090;BME280;49174;43.198;27.824;2022-11-20T15:31:21;101027.44;;;18.01;83.29
63090;BME280;49174;43.198;27.824;2022-11-20T15:33:47;101029.84;;;17.98;83.01
63090;BME280;49174;43.198;27.824;2022-11-20T15:36:13;101020.44;;;17.94;83.23
63090;BME280;49174;43.198;27.824;2022-11-20T15:38:39;101017.16;;;17.92;82.89
63090;BME280;49174;43.198;27.824;2022-11-20T15:41:05;101017.25;;;17.85;83.46
63090;BME280;49174;43.198;27.824;2022-11-20T15:43:31;101007.47;;;17.77;83.76
63090;BME280;49174;43.198;27.824;2022-11-20T15:46:00;101006.91;;;17.75;83.38
63090;BME280;49174;43.198;27.824;2022-11-20T15:48:29;101000.03;;;17.73;84.58
63090;BME280;49174;43.198;27.824;2022-11-20T15:53:39;100995.28;;;17.68;85.83
63090;BME280;49174;43.198;27.824;2022-11-20T15:56:06;101000.59;;;17.63;86.64
63090;BME280;49174;43.198;27.824;2022-11-20T15:58:34;101001.69;;;17.50;86.93
63090;BME280;49174;43.198;27.824;2022-11-20T16:01:00;101011.31;;;17.53;86.32
63090;BME280;49174;43.198;27.824;2022-11-20T16:03:25;101005.13;;;17.46;86.91
63090;BME280;49174;43.198;27.824;2022-11-20T16:05:51;101008.31;;;17.42;87.10
63090;BME280;49174;43.198;27.824;2022-11-20T16:08:17;101017.81;;;17.40;87.08
63090;BME280;49174;43.198;27.824;2022-11-20T16:10:42;101006.88;;;17.28;87.65
63090;BME280;49174;43.198;27.824;2022-11-20T16:13:15;100996.44;;;17.25;88.60
63090;BME280;49174;43.198;27.824;2022-11-20T16:16:03;101000.00;;;17.14;88.77
63090;BME280;49174;43.198;27.824;2022-11-20T16:18:30;100999.59;;;17.10;89.77
63090;BME280;49174;43.198;27.824;2022-11-20T16:20:56;100999.25;;;17.07;90.42
63090;BME280;49174;43.198;27.824;2022-11-20T16:23:23;100997.13;;;17.09;89.61
63090;BME280;49174;43.198;27.824;2022-11-20T16:25:49;101002.03;;;17.30;87.97
63090;BME280;49174;43.198;27.824;2022-11-20T16:28:15;101008.78;;;17.28;88.24
63090;BME280;49174;43.198;27.824;2022-11-20T16:30:41;101011.59;;;17.21;87.82
63090;BME280;49174;43.198;27.824;2022-11-20T16:33:14;101020.50;;;17.16;87.70
63090;BME280;49174;43.198;27.824;2022-11-20T16:35:40;101020.25;;;17.18;88.29
63090;BME280;49174;43.198;27.824;2022-11-20T16:38:06;101022.09;;;17.36;84.31
63090;BME280;49174;43.198;27.824;2022-11-20T16:40:32;101024.81;;;17.36;86.63
63090;BME280;49174;43.198;27.824;2022-11-20T16:43:07;101026.25;;;17.38;86.71
63090;BME280;49174;43.198;27.824;2022-11-20T16:47:33;101018.97;;;17.32;86.77
63090;BME280;49174;43.198;27.824;2022-11-20T16:49:59;101017.53;;;17.30;85.96
63090;BME280;49174;43.198;27.824;2022-11-20T16:52:25;101020.19;;;17.36;84.74
63090;BME280;49174;43.198;27.824;2022-11-20T16:54:50;101024.91;;;17.29;84.93
63090;BME280;49174;43.198;27.824;2022-11-20T16:57:16;101022.91;;;17.25;86.13
63090;BME280;49174;43.198;27.824;2022-11-20T16:59:41;101028.91;;;17.27;86.00
63090;BME280;49174;43.198;27.824;2022-11-20T17:02:08;101021.13;;;17.30;86.69
63090;BME280;49174;43.198;27.824;2022-11-20T17:04:35;101019.22;;;17.31;85.33
63090;BME280;49174;43.198;27.824;2022-11-20T17:07:00;101021.69;;;17.20;85.44
63090;BME280;49174;43.198;27.824;2022-11-20T17:09:27;101016.84;;;17.23;85.75
63090;BME280;49174;43.198;27.824;2022-11-20T17:11:52;101023.59;;;17.20;86.10
63090;BME280;49174;43.198;27.824;2022-11-20T17:14:18;101022.91;;;17.36;83.25
63090;BME280;49174;43.198;27.824;2022-11-20T17:16:44;101025.97;;;17.28;83.33
63090;BME280;49174;43.198;27.824;2022-11-20T17:19:10;101028.22;;;17.31;83.63
63090;BME280;49174;43.198;27.824;2022-11-20T17:21:36;101037.00;;;17.33;83.36
63090;BME280;49174;43.198;27.824;2022-11-20T17:24:05;101036.63;;;17.30;82.90
63090;BME280;49174;43.198;27.824;2022-11-20T17:26:32;101034.41;;;17.38;82.82
63090;BME280;49174;43.198;27.824;2022-11-20T17:31:30;101036.69;;;17.53;81.05
63090;BME280;49174;43.198;27.824;2022-11-20T17:33:56;101032.31;;;17.64;80.30
63090;BME280;49174;43.198;27.824;2022-11-20T17:36:23;101028.75;;;17.75;79.69
63090;BME280;49174;43.198;27.824;2022-11-20T17:38:49;101030.91;;;17.85;78.71
63090;BME280;49174;43.198;27.824;2022-11-20T17:41:17;101035.16;;;17.93;79.32
63090;BME280;49174;43.198;27.824;2022-11-20T17:43:43;101071.84;;;18.08;78.16
63090;BME280;49174;43.198;27.824;2022-11-20T17:46:17;101063.19;;;18.00;75.49
63090;BME280;49174;43.198;27.824;2022-11-20T17:48:44;101065.88;;;17.76;74.57
63090;BME280;49174;43.198;27.824;2022-11-20T17:51:17;101087.94;;;17.21;75.25
63090;BME280;49174;43.198;27.824;2022-11-20T17:53:45;101095.47;;;16.59;76.33
63090;BME280;49174;43.198;27.824;2022-11-20T17:56:12;101092.09;;;16.01;77.13
63090;BME280;49174;43.198;27.824;2022-11-20T17:58:56;101092.56;;;15.73;78.97
63090;BME280;49174;43.198;27.824;2022-11-20T18:01:22;101090.31;;;15.38;79.88
63090;BME280;49174;43.198;27.824;2022-11-20T18:03:48;101098.34;;;15.27;80.35
63090;BME280;49174;43.198;27.824;2022-11-20T18:08:44;101129.84;;;15.03;80.73
63090;BME280;49174;43.198;27.824;2022-11-20T18:11:24;101147.41;;;15.00;81.23
63090;BME280;49174;43.198;27.824;2022-11-20T18:13:57;101144.94;;;14.92;83.42
63090;BME280;49174;43.198;27.824;2022-11-20T18:16:55;101206.88;;;14.77;87.64
63090;BME280;49174;43.198;27.824;2022-11-20T18:19:23;101205.19;;;14.62;91.31
63090;BME280;49174;43.198;27.824;2022-11-20T18:21:49;101231.94;;;14.45;92.86
63090;BME280;49174;43.198;27.824;2022-11-20T18:24:14;101225.88;;;14.37;93.62
63090;BME280;49174;43.198;27.824;2022-11-20T18:26:40;101168.69;;;14.25;92.58
63090;BME280;49174;43.198;27.824;2022-11-20T18:29:06;101191.03;;;14.27;96.43
63090;BME280;49174;43.198;27.824;2022-11-20T18:31:32;101184.34;;;14.23;94.73
63090;BME280;49174;43.198;27.824;2022-11-20T18:33:58;101197.72;;;14.24;95.48
63090;BME280;49174;43.198;27.824;2022-11-20T18:36:26;101199.59;;;14.11;94.86
63090;BME280;49174;43.198;27.824;2022-11-20T18:38:54;101204.00;;;14.05;95.49
63090;BME280;49174;43.198;27.824;2022-11-20T18:41:21;101187.50;;;14.00;96.33
63090;BME280;49174;43.198;27.824;2022-11-20T18:44:15;101188.53;;;14.12;98.35
63090;BME280;49174;43.198;27.824;2022-11-20T18:49:49;101203.34;;;14.03;97.41
63090;BME280;49174;43.198;27.824;2022-11-20T18:52:21;101207.09;;;13.95;97.79
63090;BME280;49174;43.198;27.824;2022-11-20T18:54:48;101207.97;;;14.02;98.78
63090;BME280;49174;43.198;27.824;2022-11-20T18:57:18;101193.16;;;14.05;98.34
63090;BME280;49174;43.198;27.824;2022-11-20T18:59:44;101186.88;;;14.04;98.74
63090;BME280;49174;43.198;27.824;2022-11-20T19:02:15;101197.31;;;14.07;99.47
63090;BME280;49174;43.198;27.824;2022-11-20T19:04:41;101201.28;;;14.12;100.00
63090;BME280;49174;43.198;27.824;2022-11-20T19:07:07;101219.84;;;14.08;100.00
63090;BME280;49174;43.198;27.824;2022-11-20T19:09:37;101239.06;;;14.13;100.00
63090;BME280;49174;43.198;27.824;2022-11-20T19:12:03;101208.59;;;14.11;100.00
63090;BME280;49174;43.198;27.824;2022-11-20T19:14:29;101190.00;;;14.08;99.98
63090;BME280;49174;43.198;27.824;2022-11-20T19:16:54;101177.88;;;14.17;100.00
63090;BME280;49174;43.198;27.824;2022-11-20T19:19:20;101186.44;;;14.14;100.00
63090;BME280;49174;43.198;27.824;2022-11-20T19:21:46;101188.53;;;14.12;100.00
63090;BME280;49174;43.198;27.824;2022-11-20T19:24:11;101181.44;;;14.11;100.00